createdAt,value
2022-10-11T00:01:02.326Z,48.26
2022-10-11T00:03:31.792Z,48.83
2022-10-11T00:06:03.153Z,49.01
2022-10-11T00:08:32.903Z,49.27
2022-10-11T00:11:04.844Z,48.60
2022-10-11T00:13:33.961Z,49.01
2022-10-11T00:16:07.606Z,48.32
2022-10-11T00:18:36.158Z,47.90
2022-10-11T00:21:07.900Z,47.68
2022-10-11T00:23:36.302Z,47.70
2022-10-11T00:26:07.487Z,47.79
2022-10-11T00:28:37.070Z,47.33
2022-10-11T00:31:13.356Z,47.48
2022-10-11T00:33:41.927Z,47.38
2022-10-11T00:36:13.675Z,47.38
2022-10-11T00:38:43.218Z,47.25
2022-10-11T00:41:13.041Z,47.17
2022-10-11T00:43:41.830Z,47.05
2022-10-11T00:46:16.026Z,46.90
2022-10-11T00:49:17.468Z,46.82
2022-10-11T00:51:53.956Z,46.89
2022-10-11T00:54:25.374Z,46.99
2022-10-11T00:56:59.613Z,46.93
2022-10-11T00:59:31.554Z,46.92
2022-10-11T01:02:00.239Z,46.99
2022-10-11T01:04:28.754Z,47.02
2022-10-11T01:06:57.951Z,46.84
2022-10-11T01:09:26.737Z,46.83
2022-10-11T01:11:59.420Z,46.95
2022-10-11T01:15:03.412Z,46.74
2022-10-11T01:17:41.123Z,46.85
2022-10-11T01:20:36.958Z,46.76
2022-10-11T01:23:26.709Z,46.86
2022-10-11T01:26:34.810Z,47.06
2022-10-11T01:29:20.193Z,47.22
2022-10-11T01:31:56.648Z,47.58
2022-10-11T01:34:32.744Z,47.23
2022-10-11T01:37:17.190Z,47.37
2022-10-11T01:39:58.836Z,47.08
2022-10-11T01:42:28.670Z,47.50
2022-10-11T01:44:58.724Z,47.63
2022-10-11T01:47:27.511Z,47.31
2022-10-11T01:50:01.385Z,47.12
2022-10-11T01:52:33.955Z,46.97
2022-10-11T01:55:10.000Z,46.83
2022-10-11T01:58:05.533Z,46.64
2022-10-11T02:00:52.221Z,46.83
2022-10-11T02:04:01.200Z,46.70
2022-10-11T02:06:36.624Z,46.81
2022-10-11T02:09:20.921Z,46.77
2022-10-11T02:11:49.257Z,46.83
2022-10-11T02:14:22.865Z,47.21
2022-10-11T02:16:56.391Z,47.09
2022-10-11T02:19:31.496Z,46.71
2022-10-11T02:22:05.916Z,46.63
2022-10-11T02:24:37.565Z,46.66
2022-10-11T02:27:07.592Z,46.70
2022-10-11T02:29:39.564Z,46.73
2022-10-11T02:32:10.208Z,46.73
2022-10-11T02:34:53.646Z,46.68
2022-10-11T02:37:24.865Z,46.76
2022-10-11T02:39:58.352Z,46.95
2022-10-11T02:43:03.486Z,46.59
2022-10-11T02:45:37.360Z,46.91
2022-10-11T02:48:08.569Z,46.73
2022-10-11T02:50:39.483Z,46.70
2022-10-11T02:53:08.796Z,46.78
2022-10-11T02:55:37.361Z,46.75
2022-10-11T02:58:05.734Z,46.62
2022-10-11T03:00:34.103Z,46.45
2022-10-11T03:03:02.721Z,46.59
2022-10-11T03:05:32.546Z,46.66
2022-10-11T03:08:00.908Z,46.64
2022-10-11T03:10:29.265Z,46.63
2022-10-11T03:12:57.607Z,46.75
2022-10-11T03:15:26.103Z,46.67
2022-10-11T03:17:54.910Z,46.23
2022-10-11T03:20:23.980Z,46.60
2022-10-11T03:22:52.434Z,46.55
2022-10-11T03:25:20.816Z,46.55
2022-10-11T03:27:50.465Z,46.81
2022-10-11T03:30:20.079Z,47.89
2022-10-11T03:32:48.438Z,48.11
2022-10-11T03:35:17.796Z,47.51
2022-10-11T03:37:46.276Z,47.74
2022-10-11T03:40:15.250Z,47.24
2022-10-11T03:42:43.662Z,47.20
2022-10-11T03:45:12.029Z,47.20
2022-10-11T03:47:40.451Z,47.30
2022-10-11T03:50:09.557Z,47.20
2022-10-11T03:52:37.964Z,46.96
2022-10-11T03:55:07.640Z,47.06
2022-10-11T03:57:36.007Z,46.88
2022-10-11T04:00:06.051Z,46.82
2022-10-11T04:02:38.966Z,46.72
2022-10-11T04:05:08.033Z,46.82
2022-10-11T04:07:36.377Z,46.91
2022-10-11T04:10:06.649Z,47.46
2022-10-11T04:12:37.317Z,47.68
2022-10-11T04:15:06.563Z,47.36
2022-10-11T04:17:34.938Z,47.18
2022-10-11T04:20:03.650Z,47.01
2022-10-11T04:22:32.309Z,47.04
2022-10-11T04:25:00.686Z,47.12
2022-10-11T04:27:30.349Z,47.18
2022-10-11T04:29:58.692Z,47.02
2022-10-11T04:32:29.949Z,47.45
2022-10-11T04:34:58.296Z,47.43
2022-10-11T04:37:26.691Z,47.11
2022-10-11T04:39:55.081Z,47.27
2022-10-11T04:42:27.028Z,47.04
2022-10-11T04:44:55.413Z,47.44
2022-10-11T04:47:23.892Z,47.41
2022-10-11T04:49:52.345Z,47.29
2022-10-11T04:52:25.397Z,46.98
2022-10-11T04:54:54.384Z,47.10
2022-10-11T04:57:22.758Z,47.08
2022-10-11T04:59:51.117Z,47.26
2022-10-11T05:02:19.515Z,48.45
2022-10-11T05:04:48.060Z,48.19
2022-10-11T05:07:16.563Z,48.05
2022-10-11T05:09:44.929Z,47.55
2022-10-11T05:12:14.328Z,47.59
2022-10-11T05:14:42.744Z,47.93
2022-10-11T05:17:11.093Z,47.72
2022-10-11T05:19:39.590Z,47.53
2022-10-11T05:22:08.002Z,47.54
2022-10-11T05:24:37.399Z,47.57
2022-10-11T05:27:05.803Z,49.20
2022-10-11T05:29:34.271Z,48.25
2022-10-11T05:32:02.755Z,49.23
2022-10-11T05:34:31.121Z,50.72
2022-10-11T05:36:59.533Z,48.99
2022-10-11T05:39:27.907Z,48.84
2022-10-11T05:41:56.799Z,48.99
2022-10-11T05:44:25.315Z,48.40
2022-10-11T05:46:54.744Z,48.06
2022-10-11T05:49:23.174Z,48.14
2022-10-11T05:51:51.606Z,47.75
2022-10-11T05:54:19.994Z,47.74
2022-10-11T05:56:48.472Z,47.86
2022-10-11T05:59:16.935Z,47.82
2022-10-11T06:01:45.421Z,47.68
2022-10-11T06:04:14.887Z,47.72
2022-10-11T06:06:43.292Z,47.82
2022-10-11T06:09:12.645Z,47.92
2022-10-11T06:11:42.444Z,47.81
2022-10-11T06:14:11.623Z,47.78
2022-10-11T06:16:40.113Z,49.90
2022-10-11T06:19:08.818Z,50.35
2022-10-11T06:21:37.275Z,48.43
2022-10-11T06:24:06.162Z,47.88
2022-10-11T06:26:34.982Z,47.72
2022-10-11T06:29:03.788Z,47.78
2022-10-11T06:31:32.851Z,47.61
2022-10-11T06:34:01.574Z,47.78
2022-10-11T06:36:30.110Z,47.79
2022-10-11T06:39:00.945Z,47.50
2022-10-11T06:41:30.472Z,47.76
2022-10-11T06:43:58.991Z,47.95
2022-10-11T06:46:28.347Z,47.74
2022-10-11T06:48:56.905Z,47.85
2022-10-11T06:51:25.473Z,47.77
2022-10-11T06:53:56.614Z,47.95
2022-10-11T06:56:26.798Z,48.00
2022-10-11T06:58:56.928Z,47.86
2022-10-11T07:01:26.472Z,48.37
2022-10-11T07:03:57.602Z,48.43
2022-10-11T07:06:28.375Z,48.42
2022-10-11T07:08:58.840Z,49.55
2022-10-11T07:11:28.755Z,49.86
2022-10-11T07:14:02.280Z,49.83
2022-10-11T07:16:30.682Z,50.28
2022-10-11T07:19:01.394Z,49.97
2022-10-11T07:21:31.337Z,49.57
2022-10-11T07:24:00.667Z,50.00
2022-10-11T07:26:33.826Z,49.64
2022-10-11T07:29:10.756Z,49.79
2022-10-11T07:31:41.526Z,49.90
2022-10-11T07:34:10.755Z,49.94
2022-10-11T07:36:39.431Z,50.09
2022-10-11T07:39:08.745Z,49.84
2022-10-11T07:41:43.132Z,49.27
2022-10-11T07:44:14.789Z,49.76
2022-10-11T07:46:43.202Z,50.65
2022-10-11T07:49:12.575Z,50.69
2022-10-11T07:51:40.946Z,50.32
2022-10-11T07:54:09.343Z,49.91
2022-10-11T07:56:38.214Z,49.35
2022-10-11T07:59:07.964Z,49.51
2022-10-11T08:01:36.453Z,49.81
2022-10-11T08:04:05.101Z,50.01
2022-10-11T08:06:33.630Z,49.83
2022-10-11T08:09:02.682Z,49.07
2022-10-11T08:11:34.251Z,48.56
2022-10-11T08:14:08.383Z,48.34
2022-10-11T08:16:39.061Z,48.50
2022-10-11T08:19:07.925Z,48.20
2022-10-11T08:21:36.714Z,48.05
2022-10-11T08:24:06.681Z,48.22
2022-10-11T08:26:35.858Z,47.77
2022-10-11T08:29:05.130Z,47.75
2022-10-11T08:31:34.575Z,47.21
2022-10-11T08:34:03.272Z,47.56
2022-10-11T08:36:31.891Z,47.20
2022-10-11T08:39:01.083Z,47.48
2022-10-11T08:41:53.862Z,46.92
2022-10-11T08:45:08.983Z,46.63
2022-10-11T08:47:36.433Z,46.76
2022-10-11T08:50:06.919Z,46.70
2022-10-11T08:52:38.160Z,46.43
2022-10-11T08:55:21.339Z,45.48
2022-10-11T08:57:53.780Z,45.93
2022-10-11T09:00:23.533Z,46.24
2022-10-11T09:03:14.795Z,45.72
2022-10-11T09:05:58.639Z,46.54
2022-10-11T09:08:57.359Z,46.06
2022-10-11T09:11:37.575Z,46.28
2022-10-11T09:14:35.353Z,45.98
2022-10-11T09:17:25.262Z,45.63
2022-10-11T09:19:59.835Z,46.19
2022-10-11T09:22:54.380Z,44.83
2022-10-11T09:25:28.798Z,44.10
2022-10-11T09:28:04.062Z,44.76
2022-10-11T09:30:33.302Z,44.87
2022-10-11T09:33:08.120Z,43.99
2022-10-11T09:35:41.519Z,42.46
2022-10-11T09:38:24.593Z,42.65
2022-10-11T09:41:07.726Z,42.56
2022-10-11T09:43:36.233Z,42.04
2022-10-11T09:46:33.869Z,43.74
2022-10-11T09:49:14.277Z,41.81
2022-10-11T09:51:47.137Z,41.29
2022-10-11T09:54:17.647Z,41.44
2022-10-11T09:56:46.377Z,41.51
2022-10-11T09:59:32.827Z,40.36
2022-10-11T10:02:13.349Z,41.13
2022-10-11T10:04:53.840Z,42.78
2022-10-11T10:07:23.922Z,41.74
2022-10-11T10:09:53.147Z,41.95
2022-10-11T10:12:26.157Z,39.88
2022-10-11T10:15:06.819Z,40.34
2022-10-11T10:17:35.947Z,40.43
2022-10-11T10:20:05.996Z,39.93
2022-10-11T10:22:37.029Z,41.27
2022-10-11T10:25:08.031Z,40.98
2022-10-11T10:27:36.562Z,41.87
2022-10-11T10:30:07.689Z,39.20
2022-10-11T10:32:48.225Z,38.65
2022-10-11T10:35:27.442Z,38.98
2022-10-11T10:38:07.786Z,38.82
2022-10-11T10:40:49.666Z,37.83
2022-10-11T10:43:21.184Z,39.28
2022-10-11T10:46:11.228Z,38.25
2022-10-11T10:49:52.583Z,38.57
2022-10-11T10:52:57.474Z,37.46
2022-10-11T10:55:42.085Z,39.04
2022-10-11T10:58:26.263Z,39.88
2022-10-11T11:01:13.117Z,37.06
2022-10-11T11:03:51.821Z,36.73
2022-10-11T11:06:36.614Z,37.52
2022-10-11T11:09:33.276Z,37.14
2022-10-11T11:12:29.099Z,37.26
2022-10-11T11:15:00.236Z,37.34
2022-10-11T11:17:44.926Z,37.10
2022-10-11T11:20:24.658Z,37.42
2022-10-11T11:23:20.854Z,38.18
2022-10-11T11:26:11.469Z,37.25
2022-10-11T11:28:57.995Z,38.59
2022-10-11T11:31:35.745Z,37.93
2022-10-11T11:34:27.761Z,37.82
2022-10-11T11:37:10.522Z,37.60
2022-10-11T11:39:50.102Z,37.67
2022-10-11T11:42:34.990Z,37.88
2022-10-11T11:45:32.639Z,37.99
2022-10-11T11:48:09.901Z,37.57
2022-10-11T11:50:41.957Z,36.46
2022-10-11T11:53:15.161Z,37.18
2022-10-11T11:56:04.151Z,36.25
2022-10-11T11:58:32.640Z,36.69
2022-10-11T12:01:31.519Z,37.53
2022-10-11T12:04:05.236Z,37.58
2022-10-11T12:06:36.098Z,36.58
2022-10-11T12:09:22.338Z,36.35
2022-10-11T12:12:00.033Z,36.14
2022-10-11T12:14:33.979Z,36.04
2022-10-11T12:17:21.705Z,36.93
2022-10-11T12:20:21.449Z,36.58
2022-10-11T12:22:49.767Z,36.53
2022-10-11T12:25:33.133Z,36.63
2022-10-11T12:28:26.026Z,35.83
2022-10-11T12:31:04.666Z,36.53
2022-10-11T12:33:33.292Z,36.29
2022-10-11T12:36:29.713Z,36.30
2022-10-11T12:39:42.271Z,35.84
2022-10-11T12:42:20.067Z,34.40
2022-10-11T12:45:13.612Z,34.58
2022-10-11T12:48:03.274Z,35.94
2022-10-11T12:50:47.837Z,34.56
2022-10-11T12:53:35.016Z,36.35
2022-10-11T12:56:25.901Z,36.23
2022-10-11T12:59:03.287Z,35.40
2022-10-11T13:01:37.222Z,35.35
2022-10-11T13:04:11.672Z,35.22
2022-10-11T13:06:56.617Z,35.42
2022-10-11T13:09:30.208Z,35.55
2022-10-11T13:12:06.718Z,35.89
2022-10-11T13:14:42.180Z,35.22
2022-10-11T13:17:19.835Z,35.80
2022-10-11T13:19:58.999Z,36.00
2022-10-11T13:22:27.637Z,34.89
2022-10-11T13:24:57.598Z,36.28
2022-10-11T13:27:27.536Z,36.10
2022-10-11T13:30:00.724Z,36.30
2022-10-11T13:32:31.700Z,35.92
2022-10-11T13:35:06.937Z,35.60
2022-10-11T13:37:47.518Z,35.71
2022-10-11T13:40:19.941Z,35.65
2022-10-11T13:42:50.680Z,36.03
2022-10-11T13:45:22.940Z,35.62
2022-10-11T13:47:53.252Z,35.92
2022-10-11T13:50:32.434Z,36.12
2022-10-11T13:53:03.708Z,35.99
2022-10-11T13:55:35.181Z,35.66
2022-10-11T13:58:15.021Z,35.96
2022-10-11T14:00:56.469Z,34.29
2022-10-11T14:03:53.605Z,35.96
2022-10-11T14:06:22.378Z,33.97
2022-10-11T14:08:58.523Z,34.36
2022-10-11T14:11:39.216Z,34.58
2022-10-11T14:17:05.187Z,34.95
2022-10-11T14:19:33.784Z,35.40
2022-10-11T14:22:04.678Z,35.49
2022-10-11T14:24:33.315Z,34.93
2022-10-11T14:27:05.728Z,34.79
2022-10-11T14:29:39.626Z,35.19
2022-10-11T14:32:14.142Z,35.38
2022-10-11T14:34:45.261Z,34.68
2022-10-11T14:37:16.748Z,34.58
2022-10-11T14:39:47.710Z,34.94
2022-10-11T14:42:17.089Z,35.14
2022-10-11T14:44:45.669Z,35.36
2022-10-11T14:47:16.272Z,35.44
2022-10-11T14:49:45.287Z,35.77
2022-10-11T14:52:14.230Z,35.51
2022-10-11T14:54:42.690Z,35.91
2022-10-11T14:57:12.661Z,35.90
2022-10-11T14:59:41.101Z,36.20
2022-10-11T15:02:11.854Z,36.05
2022-10-11T15:04:40.353Z,35.94
2022-10-11T15:07:12.611Z,35.77
2022-10-11T15:09:41.178Z,36.13
2022-10-11T15:12:09.643Z,35.35
2022-10-11T15:14:38.099Z,35.73
2022-10-11T15:17:06.522Z,35.93
2022-10-11T15:19:36.569Z,35.45
2022-10-11T15:22:05.984Z,35.68
2022-10-11T15:24:34.380Z,35.59
2022-10-11T15:27:02.855Z,35.63
2022-10-11T15:29:31.235Z,35.35
2022-10-11T15:31:59.612Z,35.73
2022-10-11T15:34:28.076Z,35.80
2022-10-11T15:36:56.657Z,35.38
2022-10-11T15:42:00.275Z,35.23
2022-10-11T15:44:28.829Z,35.26
2022-10-11T15:46:57.206Z,35.46
2022-10-11T15:49:25.644Z,34.98
2022-10-11T15:51:54.100Z,35.49
2022-10-11T15:56:50.975Z,35.33
2022-10-11T15:59:19.401Z,35.50
2022-10-11T16:01:48.049Z,35.27
2022-10-11T16:04:16.589Z,35.68
2022-10-11T16:06:45.086Z,35.18
2022-10-11T16:09:14.474Z,35.38
2022-10-11T16:11:42.966Z,35.89
2022-10-11T16:14:12.465Z,35.86
2022-10-11T16:16:40.899Z,35.71
2022-10-11T16:19:09.426Z,35.68
2022-10-11T16:21:37.882Z,35.76
2022-10-11T16:24:06.353Z,36.18
2022-10-11T16:26:34.828Z,36.22
2022-10-11T16:29:03.413Z,36.27
2022-10-11T16:31:32.095Z,36.60
2022-10-11T16:34:00.537Z,36.70
2022-10-11T16:36:36.523Z,36.53
2022-10-11T16:39:14.096Z,36.27
2022-10-11T16:41:42.851Z,36.74
2022-10-11T16:44:17.421Z,37.22
2022-10-11T16:46:48.210Z,36.56
2022-10-11T16:49:18.261Z,36.96
2022-10-11T16:51:46.656Z,36.84
2022-10-11T16:54:20.008Z,36.94
2022-10-11T16:56:50.203Z,37.06
2022-10-11T16:59:19.135Z,36.85
2022-10-11T17:01:48.208Z,37.15
2022-10-11T17:04:16.654Z,37.12
2022-10-11T17:06:45.384Z,37.35
2022-10-11T17:09:13.803Z,37.40
2022-10-11T17:11:42.941Z,37.46
2022-10-11T17:14:12.730Z,37.57
2022-10-11T17:16:41.272Z,37.57
2022-10-11T17:19:11.831Z,37.59
2022-10-11T17:21:40.472Z,37.56
2022-10-11T17:24:08.889Z,37.74
2022-10-11T17:26:37.297Z,37.91
2022-10-11T17:29:05.893Z,37.99
2022-10-11T17:31:36.432Z,38.00
2022-10-11T17:34:04.984Z,38.09
2022-10-11T17:36:36.249Z,38.27
2022-10-11T17:39:10.916Z,38.19
2022-10-11T17:41:39.331Z,38.45
2022-10-11T17:44:07.749Z,38.34
2022-10-11T17:46:36.622Z,38.52
2022-10-11T17:49:08.259Z,38.54
2022-10-11T17:51:37.571Z,38.43
2022-10-11T17:54:06.384Z,39.26
2022-10-11T17:56:37.843Z,39.85
2022-10-11T17:59:08.197Z,39.87
2022-10-11T18:01:37.239Z,39.89
2022-10-11T18:04:06.385Z,40.01
2022-10-11T18:06:39.381Z,39.79
2022-10-11T18:09:07.927Z,40.03
2022-10-11T18:11:36.381Z,40.54
2022-10-11T18:14:05.239Z,40.48
2022-10-11T18:16:34.536Z,40.16
2022-10-11T18:19:09.859Z,40.57
2022-10-11T18:21:38.706Z,40.75
2022-10-11T18:24:15.556Z,40.95
2022-10-11T18:26:45.402Z,41.50
2022-10-11T18:29:14.067Z,41.36
2022-10-11T18:31:42.713Z,41.71
2022-10-11T18:34:12.918Z,42.54
2022-10-11T18:36:42.158Z,42.02
2022-10-11T18:39:14.255Z,41.46
2022-10-11T18:41:44.495Z,41.08
2022-10-11T18:44:15.561Z,41.54
2022-10-11T18:46:45.145Z,41.94
2022-10-11T18:49:14.561Z,41.77
2022-10-11T18:51:44.697Z,41.80
2022-10-11T18:54:16.723Z,41.95
2022-10-11T18:56:48.595Z,42.06
2022-10-11T18:59:17.008Z,42.35
2022-10-11T19:01:45.910Z,42.33
2022-10-11T19:04:18.460Z,42.65
2022-10-11T19:06:48.537Z,42.97
2022-10-11T19:09:21.888Z,43.42
2022-10-11T19:11:55.100Z,43.15
2022-10-11T19:14:26.398Z,43.14
2022-10-11T19:16:56.122Z,42.96
2022-10-11T19:19:27.446Z,42.50
2022-10-11T19:21:56.384Z,42.02
2022-10-11T19:24:27.096Z,42.85
2022-10-11T19:27:02.007Z,43.70
2022-10-11T19:29:31.814Z,43.17
2022-10-11T19:32:02.854Z,42.92
2022-10-11T19:34:32.689Z,43.01
2022-10-11T19:37:03.040Z,43.63
2022-10-11T19:39:31.848Z,43.70
2022-10-11T19:42:00.808Z,43.28
2022-10-11T19:44:29.256Z,42.74
2022-10-11T19:47:01.424Z,43.08
2022-10-11T19:49:32.727Z,42.98
2022-10-11T19:52:01.227Z,42.93
2022-10-11T19:54:29.735Z,42.79
2022-10-11T19:56:58.113Z,43.12
2022-10-11T19:59:27.993Z,42.94
2022-10-11T20:01:56.388Z,43.06
2022-10-11T20:04:51.134Z,42.75
2022-10-11T20:07:13.275Z,42.80
2022-10-11T20:09:41.636Z,43.03
2022-10-11T20:12:09.965Z,42.93
2022-10-11T20:14:38.299Z,43.09
2022-10-11T20:17:07.198Z,42.84
2022-10-11T20:19:35.514Z,42.60
2022-10-11T20:22:03.928Z,42.87
2022-10-11T20:24:34.314Z,42.85
2022-10-11T20:27:06.298Z,42.64
2022-10-11T20:29:34.706Z,42.76
2022-10-11T20:32:03.093Z,43.05
2022-10-11T20:34:31.563Z,43.69
2022-10-11T20:36:59.989Z,43.89
2022-10-11T20:39:28.369Z,43.15
2022-10-11T20:41:56.684Z,43.37
2022-10-11T20:44:25.173Z,44.28
2022-10-11T20:46:53.495Z,45.19
2022-10-11T20:49:22.461Z,45.24
2022-10-11T20:51:50.925Z,44.13
2022-10-11T20:54:19.439Z,44.57
2022-10-11T20:56:47.817Z,45.56
2022-10-11T20:59:16.281Z,45.98
2022-10-11T21:01:44.705Z,45.47
2022-10-11T21:04:20.610Z,44.24
2022-10-11T21:06:49.316Z,44.02
2022-10-11T21:09:17.722Z,43.91
2022-10-11T21:11:46.457Z,43.83
2022-10-11T21:14:15.138Z,43.52
2022-10-11T21:16:43.737Z,43.48
2022-10-11T21:19:15.675Z,43.83
2022-10-11T21:21:50.975Z,43.28
2022-10-11T21:24:22.046Z,43.77
2022-10-11T21:26:50.487Z,43.64
2022-10-11T21:29:19.171Z,44.11
2022-10-11T21:31:47.515Z,43.61
2022-10-11T21:34:15.914Z,44.10
2022-10-11T21:36:45.305Z,45.18
2022-10-11T21:39:13.628Z,45.58
2022-10-11T21:41:42.248Z,45.36
2022-10-11T21:44:10.684Z,45.56
2022-10-11T21:49:27.320Z,46.35
2022-10-11T21:51:56.268Z,46.72
2022-10-11T21:54:24.721Z,46.33
2022-10-11T21:56:53.175Z,45.75
2022-10-11T21:59:21.528Z,45.33
2022-10-11T22:01:50.772Z,44.83
2022-10-11T22:04:19.253Z,45.19
2022-10-11T22:06:47.715Z,45.32
2022-10-11T22:09:16.128Z,45.65
2022-10-11T22:11:44.536Z,45.26
2022-10-11T22:14:12.903Z,45.02
2022-10-11T22:16:41.279Z,44.59
2022-10-11T22:19:09.664Z,44.42
2022-10-11T22:21:41.376Z,45.03
2022-10-11T22:24:13.311Z,45.43
2022-10-11T22:26:41.637Z,45.28
2022-10-11T22:29:10.014Z,44.95
2022-10-11T22:31:38.388Z,45.37
2022-10-11T22:34:06.788Z,44.89
2022-10-11T22:36:35.292Z,44.90
2022-10-11T22:39:07.794Z,44.94
2022-10-11T22:41:37.698Z,44.43
2022-10-11T22:44:06.352Z,44.50
2022-10-11T22:46:34.754Z,44.57
2022-10-11T22:49:03.272Z,44.46
2022-10-11T22:51:31.771Z,44.48
2022-10-11T22:54:00.148Z,44.46
2022-10-11T22:56:28.527Z,44.54
2022-10-11T22:58:58.420Z,44.46
2022-10-11T23:01:26.860Z,45.26
2022-10-11T23:03:56.356Z,46.01
2022-10-11T23:06:24.820Z,45.95
2022-10-11T23:08:53.123Z,45.74
2022-10-11T23:11:21.513Z,45.98
2022-10-11T23:13:49.895Z,46.09
2022-10-11T23:16:18.396Z,45.81
2022-10-11T23:18:46.767Z,45.60
2022-10-11T23:21:15.184Z,45.64
2022-10-11T23:23:43.535Z,45.22
2022-10-11T23:26:14.043Z,45.12
2022-10-11T23:28:43.834Z,44.95
2022-10-11T23:31:17.944Z,44.60
2022-10-11T23:33:47.354Z,45.31
2022-10-11T23:36:21.456Z,46.75
2022-10-11T23:38:51.832Z,46.79
2022-10-11T23:41:21.211Z,46.95
2022-10-11T23:43:49.719Z,46.92
2022-10-11T23:46:18.117Z,46.33
2022-10-11T23:48:46.699Z,45.73
2022-10-11T23:51:15.570Z,45.90
2022-10-11T23:53:43.932Z,46.92
2022-10-11T23:56:12.600Z,46.51
2022-10-11T23:58:41.173Z,46.02
